• Join FlightAware (Why Join?)
  • Login
  • US Flag 
07:48PM EDT


 

Airport Tracker/Info


-or-


 

Live Flight TrackerFlight Track Log ✈ N662US ✈ 17-Jun-2013 ✈ RJAA / NRT - ZSPD / PVG

Flight Track Log - Related Links

Times and Time Zones

All times are in EDT time to prevent confusion due to time zone crossing. See the N662US flight status page for this flight to view local times or setup timezone preferences in your user account.

Time Position Orientation Groundspeed Altitude Reporting Facility
EDT Latitude Longitude Course Direction KTS MPH feet Rate Location/Type
07:53AM 35.7425 140.2498 259° West  Level Estimated
07:54AM 35.7202 140.1133 259° West  Level Estimated
07:55AM 35.6977 139.9769 259° West  Level Estimated
07:55AM 35.6910 140.4280 258° West 181 208 3,800  Level FlightAware
07:56AM 35.6750 139.8406 258° West  Level Estimated
07:56AM 35.6520 140.4560 150° Southeast 242 278 4,700  Level FlightAware
07:56AM 35.6320 140.4710 149° Southeast 263 303 5,200 2,400 Climbing FlightAware
07:56AM 35.5940 140.4980 150° Southeast 276 318 6,900 3,060 Climbing FlightAware
07:57AM 35.5650 140.5180 151° Southeast 282 325 8,200 2,700 Climbing FlightAware
07:57AM 35.5500 140.5230 165° South 285 328 8,700 2,580 Climbing FlightAware
07:58AM 35.5200 140.5120 197° South 287 330 9,900 2,580 Climbing FlightAware
07:58AM 35.5020 140.4670 244° Southwest 301 346 11,100 2,220 Climbing FlightAware
07:59AM 35.5180 140.4120 290° West 340 391 12,100 2,040 Climbing FlightAware
07:59AM 35.5370 140.3930 321° Northwest 356 410 12,600 2,040 Climbing FlightAware
07:59AM 35.6030 140.3580 337° Northwest 400 460 14,000 2,640 Climbing FlightAware
08:00AM 35.6820 140.3180 338° Northwest 401 461 16,400 2,940 Climbing FlightAware
08:01AM 35.7480 140.2740 332° Northwest 410 472 18,200 2,820 Climbing FlightAware
08:01AM 35.7650 140.2460 307° West 407 468 19,000 2,700 Climbing FlightAware
08:02AM 35.7850 140.1560 285° West 418 481 20,700 2,400 Climbing FlightAware
08:03AM 35.7760 140.0480 264° West 432 497 22,400 2,280 Climbing FlightAware
08:03AM 35.7660 139.9500 263° West 437 503 24,000 2,280 Climbing FlightAware
08:04AM 35.7540 139.8350 263° West 445 512 25,700 2,040 Climbing FlightAware
08:05AM 35.7410 139.7360 261° West 455 524 26,900 1,860 Climbing FlightAware
08:05AM 35.7280 139.6300 261° West 462 532 28,200 1,620 Climbing FlightAware
08:06AM 35.7150 139.5350 260° West 473 544 29,200 1,620 Climbing FlightAware
08:07AM 35.6990 139.4050 261° West 480 552 30,500 2,280 Climbing FlightAware
08:07AM 35.6830 139.2860 261° West 468 539 32,500 2,160 Climbing FlightAware
08:08AM 35.6700 139.1800 261° West 468 539 33,600 1,680 Climbing FlightAware
08:09AM 35.6550 139.0640 261° West 466 536 34,900 1,620 Climbing FlightAware
08:10AM 35.6400 138.9580 260° West 461 531 36,000 720 Climbing FlightAware
08:10AM 35.6250 138.8410 261° West 459 528 36,000  Level FlightAware
08:11AM 35.6080 138.7150 261° West 459 528 36,000  Level FlightAware
08:12AM 35.5900 138.5850 260° West 458 527 36,000  Level FlightAware
08:13AM 35.5780 138.4920 261° West 457 526 36,000  Level FlightAware
08:13AM 35.5610 138.3690 260° West 458 527 36,000 60 Level FlightAware
08:14AM 35.5470 138.2720 260° West 460 529 36,100 720 Climbing FlightAware
08:15AM 35.5330 138.1690 261° West 459 528 37,000 1,200 Climbing FlightAware
08:15AM 35.5170 138.0560 260° West 456 525 37,800 660 Climbing FlightAware
08:16AM 35.5010 137.9380 261° West 456 525 38,000 120 Climbing FlightAware
08:17AM 35.4870 137.8410 260° West 454 522 38,000  Level FlightAware
08:18AM 35.4720 137.7350 260° West 451 519 38,000  Level FlightAware
08:18AM 35.4560 137.6240 260° West 450 518 38,000  Level FlightAware
08:19AM 35.4410 137.5200 260° West 450 518 38,000  Level FlightAware
08:20AM 35.4240 137.4050 260° West 447 514 38,000  Level FlightAware
08:20AM 35.4100 137.3080 260° West 450 518 38,000  Level FlightAware
08:21AM 35.3950 137.2070 260° West 450 518 38,000  Level FlightAware
08:22AM 35.3780 137.0940 260° West 450 518 38,000  Level FlightAware
08:22AM 35.3630 136.9940 260° West 451 519 38,000  Level FlightAware
08:23AM 35.3500 136.9060 260° West 452 520 38,000  Level FlightAware
08:24AM 35.3310 136.7800 260° West 452 520 38,000  Level FlightAware
08:25AM 35.3140 136.6700 259° West 454 522 38,000  Level FlightAware
08:25AM 35.2980 136.5680 259° West 455 524 38,000  Level FlightAware
08:26AM 35.2830 136.4670 260° West 457 526 38,000  Level FlightAware
08:27AM 35.2650 136.3520 259° West 461 531 38,000  Level FlightAware
08:27AM 35.2480 136.2470 259° West 462 532 38,000  Level FlightAware
08:28AM 35.2330 136.1450 260° West 461 531 38,000  Level FlightAware
08:29AM 35.2160 136.0290 260° West 460 529 38,000  Level FlightAware
08:29AM 35.2010 135.9270 260° West 461 531 38,000  Level FlightAware
08:30AM 35.1840 135.8110 260° West 461 531 38,000  Level FlightAware
08:31AM 35.1680 135.7090 259° West 460 529 38,000  Level FlightAware
08:31AM 35.1500 135.6070 258° West 462 532 38,000  Level FlightAware
08:32AM 35.1320 135.5050 258° West 462 532 38,000  Level FlightAware
08:33AM 35.1130 135.3920 258° West 464 534 38,000  Level FlightAware
08:34AM 35.1000 135.3120 259° West 466 536 38,000  Level FlightAware
08:34AM 35.0750 135.1710 258° West 466 536 38,000  Level FlightAware
08:35AM 35.0580 135.0720 258° West 467 537 38,000  Level FlightAware
08:36AM 35.0370 134.9520 258° West 467 537 38,000  Level FlightAware
08:36AM 35.0190 134.8490 258° West 466 536 38,000  Level FlightAware
08:37AM 35.0020 134.7510 258° West 465 535 38,000  Level FlightAware
08:38AM 34.9820 134.6420 257° West 464 534 38,000  Level FlightAware
08:39AM 34.9610 134.5380 256° West 462 532 38,000  Level FlightAware
08:39AM 34.9380 134.4220 256° West 460 529 38,000  Level FlightAware
08:40AM 34.9110 134.2860 256° West 459 528 38,000  Level FlightAware
08:41AM 34.8890 134.1760 256° West 460 529 38,000  Level FlightAware
08:42AM 34.8610 134.0350 256° West 458 527 38,000  Level FlightAware
08:43AM 34.8170 133.8210 256° West 463 533 38,000  Level FlightAware
08:44AM 34.7970 133.7250 256° West 465 535 38,000  Level FlightAware
08:45AM 34.7760 133.6260 256° West 466 536 38,000  Level FlightAware
08:45AM 34.7590 133.5470 255° West 466 536 38,000  Level FlightAware
08:46AM 34.7270 133.3970 255° West 467 537 38,000  Level FlightAware
08:47AM 34.7050 133.2930 256° West 469 540 38,000  Level FlightAware
08:47AM 34.6790 133.1760 255° West 470 541 38,000  Level FlightAware
08:48AM 34.6570 133.0710 256° West 472 543 38,000  Level FlightAware
08:49AM 34.6320 132.9590 255° West 470 541 38,000  Level FlightAware
08:50AM 34.6010 132.8240 254° West 469 540 38,000  Level FlightAware
08:51AM 34.5490 132.6830 246° West 477 549 38,000  Level FlightAware
08:51AM 34.5140 132.5880 246° West 475 547 38,000  Level FlightAware
08:52AM 34.4880 132.5110 248° West 475 547 38,000  Level FlightAware
08:53AM 34.4510 132.4080 246° West 479 551 38,000  Level FlightAware
08:53AM 34.4120 132.3020 246° West 481 554 38,000  Level FlightAware
08:54AM 34.3750 132.2060 245° Southwest 481 554 38,000  Level FlightAware
08:55AM 34.3340 132.0950 246° West 485 558 38,000  Level FlightAware
08:55AM 34.2960 131.9950 245° Southwest 487 560 38,000  Level FlightAware
08:56AM 34.2550 131.8850 246° West 489 563 38,000  Level FlightAware
08:57AM 34.2160 131.7830 245° Southwest 489 563 38,000  Level FlightAware
08:57AM 34.1780 131.6830 245° Southwest 489 563 38,000  Level FlightAware
08:58AM 34.1350 131.5700 245° Southwest 489 563 38,000  Level FlightAware
08:59AM 34.0980 131.4700 246° West 490 564 38,000  Level FlightAware
09:00AM 34.0530 131.3560 245° Southwest 494 568 38,000  Level FlightAware
09:00AM 34.0150 131.2580 245° Southwest 494 568 38,000  Level FlightAware
09:01AM 33.9720 131.1440 246° West 493 567 38,000  Level FlightAware
09:02AM 33.9340 131.0470 245° Southwest 493 567 38,000  Level FlightAware
09:02AM 33.8960 130.9490 245° Southwest 494 568 38,000  Level FlightAware
09:03AM 33.8510 130.8350 245° Southwest 494 568 38,000  Level FlightAware
09:04AM 33.8120 130.7350 245° Southwest 496 571 38,000  Level FlightAware
09:04AM 33.7690 130.6260 245° Southwest 496 571 38,000  Level FlightAware
09:05AM 33.7290 130.5240 245° Southwest 496 571 38,000  Level FlightAware
09:06AM 33.6900 130.4270 244° Southwest 496 571 38,000  Level FlightAware
09:07AM 33.6340 130.3220 237° Southwest 499 574 38,000  Level FlightAware
09:07AM 33.5690 130.2210 232° Southwest 505 581 38,000  Level FlightAware
09:08AM 33.5200 130.1430 233° Southwest 506 582 38,000  Level FlightAware
09:09AM 33.4700 129.9780 250° West 494 568 38,000  Level FlightAware
09:10AM 33.4330 129.8590 250° West 500 575 38,000  Level FlightAware
09:10AM 33.4010 129.7610 249° West 500 575 38,000  Level FlightAware
09:11AM 33.3580 129.6330 248° West 502 578 38,000  Level FlightAware
09:12AM 33.3220 129.5250 248° West 501 577 38,000  Level FlightAware
09:13AM 33.2850 129.4030 250° West 498 573 38,000  Level FlightAware
09:13AM 33.2550 129.3040 250° West 497 572 38,000  Level FlightAware
09:14AM 33.2260 129.2080 250° West 495 570 38,000  Level FlightAware
09:15AM 33.1940 129.1050 250° West 495 570 38,000  Level FlightAware
09:15AM 33.1690 129.0250 250° West 495 570 38,000  Level FlightAware
09:16AM 33.1450 128.9460 250° West 495 570 38,000  Level FlightAware
09:17AM 33.1140 128.8430 250° West 495 570 38,000  Level FlightAware
09:18AM 33.0810 128.7360 250° West 495 570 38,000  Level FlightAware
09:18AM 33.0570 128.6580 250° West 495 570 38,000  Level FlightAware
09:19AM 33.0330 128.5770 251° West 495 570 38,000  Level FlightAware
09:20AM 33.0000 128.4700 250° West 495 570 38,000  Level FlightAware
09:20AM 32.9700 128.3700 250° West 495 570 38,000  Level FlightAware
09:21AM 32.9440 128.2870 250° West 495 570 38,000  Level FlightAware
09:22AM 32.9200 128.2090 250° West 495 570 38,000  Level FlightAware
09:22AM 32.8880 128.1020 250° West 495 570 38,000  Level FlightAware
09:23AM 32.8640 128.0230 250° West 495 570 38,000  Level FlightAware
09:24AM 32.8320 127.9190 250° West 495 570 38,000 -900 Level FlightAware
09:26AM 32.7731 127.6812 254° West  Level Estimated
09:27AM 32.7371 127.5373 254° West  Level Estimated
09:28AM 32.7010 127.3935 253° West  Level Estimated
09:29AM 32.6647 127.2497 253° West  Level Estimated
09:30AM 32.6283 127.1061 253° West  Level Estimated
09:31AM 32.5917 126.9627 253° West  Level Estimated
09:32AM 32.5550 126.8193 253° West  Level Estimated
09:33AM 32.5192 126.6804 253° West  Level Estimated
09:34AM 32.4832 126.5416 253° West  Level Estimated
09:35AM 32.4471 126.4029 253° West  Level Estimated
09:36AM 32.4109 126.2644 253° West  Level Estimated
09:37AM 32.3745 126.1259 253° West  Level Estimated
09:38AM 32.3379 125.9876 253° West  Level Estimated
09:39AM 32.3012 125.8493 253° West  Level Estimated
09:40AM 32.2643 125.7112 253° West  Level Estimated
09:41AM 32.2273 125.5732 252° West  Level Estimated
09:42AM 32.1902 125.4353 252° West  Level Estimated
09:43AM 32.1528 125.2975 252° West  Level Estimated
09:44AM 32.1154 125.1598 252° West  Level Estimated
09:45AM 32.0778 125.0223 252° West  Level Estimated
09:46AM 32.0400 124.8848 252° West  Level Estimated
09:47AM 32.0021 124.7475 252° West  Level Estimated
09:48AM 31.9641 124.6103 252° West  Level Estimated
09:49AM 31.9259 124.4732 252° West  Level Estimated
09:50AM 31.8875 124.3362 252° West  Level Estimated
09:51AM 31.8490 124.1993 252° West  Level Estimated
09:52AM 31.8104 124.0625 252° West  Level Estimated
09:53AM 31.7716 123.9259 252° West  Level Estimated
09:54AM 31.7327 123.7894 251° West  Level Estimated
09:55AM 31.6936 123.6529 251° West  Level Estimated
09:56AM 31.6544 123.5166 251° West  Level Estimated
09:57AM 31.6150 123.3804 251° West  Level Estimated
09:58AM 31.5755 123.2444 251° West  Level Estimated
09:59AM 31.5359 123.1084 251° West  Level Estimated
10:00AM 31.4960 122.9726 251° West  Level Estimated
10:01AM 31.4561 122.8368 251° West  Level Estimated
10:02AM 31.4160 122.7012 251° West  Level Estimated
10:03AM 31.3758 122.5657 251° West  Level Estimated
10:03AM 31.3760 122.0300 251° West 255 293 3,600  Level FlightAware
10:03AM 31.3760 122.0190 270° West 254 292 3,400 -840 Descending FlightAware
10:04AM 31.3730 121.9510 267° West 253 291 2,800 -720 Descending FlightAware
10:04AM 31.3620 121.9060 254° West 203 234 2,400 -480 Descending FlightAware
10:04AM 31.3570 121.8930 246° West 186 214 2,400  Level FlightAware
10:05AM 31.3470 121.8640 248° West 186 214 2,400  Level FlightAware
10:05AM 31.3380 121.8350 250° West 174 200 2,400  Level FlightAware
10:06AM 31.3310 121.8140 249° West 174 200 2,400  Level FlightAware
10:07AM 31.2950 121.7670 228° Southwest 163 188 2,400  Level FlightAware
10:07AM 31.2820 121.7660 184° South 178 205 2,400 -300 Level FlightAware
10:08AM 31.2450 121.7790 163° South 152 175 2,100 -600 Descending FlightAware
10:09AM 31.2200 121.7890 161° South 139 160 1,600 -780 Descending FlightAware
10:10AM 31.1800 121.8030 163° South 135 155 800 -600 Descending FlightAware
10:10AM 31.1660 121.8090 160° South 135 155 800  Level FlightAware